Startpagina
METAR-TAF:

METAR-TAF

Vliegvelden :

Luchthaven Moi Internationaal

Mombassa, Kenia

breedte: 04-02S, lengte: 039-37E, hoogte: 57 m

Actueel weer

Dit bericht is 3 uur en het 45 minuten geleden gemaakt, om 00:00 UTC
Wind 6 kt uit het zuidwesten
Temperatuur 26°C
Vochtigheid 89%
Druk 1012 hPa
Zicht 10 km of meer
Weinig wolken op 2100 ft

METAR: HKMO 120000Z 23006KT 9999 FEW021 26/24 Q1012 NOSIG

Tijdstip: 06:45 (03:45 UTC)

Verwachting

Dit bericht is 4 uur en het 45 minuten geleden gemaakt, om 23:00 UTC
Verwachting geldig van 12 om 00 UTC tot 13 om 06 UTC
Wind 5 kt uit het zuidwesten
Zicht 10 km of meer
Weinig wolken op 2200 ft
Wijzigt naar
van 12 om 09 UTC tot 12 om 12 UTC
Wind 10 kt uit het zuidzuidoosten
Weinig wolken op 2700 ft, Cumulonimbus.
Wijzigt naar
van 13 om 00 UTC tot 13 om 03 UTC
Wind 10 kt uit het zuidwesten
Verspreide wolken op 2100 ft

TAF: HKMO 112300Z 1200/1306 22005KT 9999 FEW022 BECMG 1209/1212 16010KT FEW027CB BECMG 1300/1303 22010KT SCT021

Waarnemingen en weersverwachtingen van meer dan 4000 vliegvelden (METAR en TAF).

De beschikbare stations zijn de gele en rode punten op de kaart.

Ga met uw muis naar het station om de naam te zien.

Klik dan om waarnemingen en weersverwachtingen te zien.

kaart wijzigen: klik op de groene knoppen met een zwart kruis om in te zoomen, op de groene knop met een streepje om uit te zoomen of op de groene pijlen voor aangrenzende kaarten.


METAR-TAF: